Time;durP1;ratioP1;P1;durP2;ratioP2;P2;SDS_P1;SDS_P2;PMS_P1;PMS_P2;Temp;Humidity;BMP_temperature;BMP_pressure;BME280_temperature;BME280_humidity;BME280_pressure;Samples;Min_cycle;Max_cycle;Signal;HPM_P1;HPM_P2
2024/01/05 00:00:19;;;;;;;6.87;3.17;;;1.60;99.90;;;;;;4414945;28;657915;-74
2024/01/05 00:03:06;;;;;;;4.40;2.80;;;1.50;99.90;;;;;;4435163;28;657190;-74
2024/01/05 00:05:53;;;;;;;6.75;3.45;;;1.50;99.90;;;;;;4410789;28;658086;-73
2024/01/05 00:08:41;;;;;;;6.70;4.03;;;1.50;99.90;;;;;;4432321;28;657832;-73
2024/01/05 00:11:28;;;;;;;7.10;3.70;;;1.50;99.90;;;;;;4403699;28;658107;-73
2024/01/05 00:14:16;;;;;;;7.67;3.97;;;1.40;99.90;;;;;;4432997;28;657296;-74
2024/01/05 00:17:04;;;;;;;6.87;4.37;;;1.40;99.90;;;;;;4408521;28;657777;-73
2024/01/05 00:19:51;;;;;;;6.80;3.87;;;1.30;99.90;;;;;;4430457;28;658140;-73
2024/01/05 00:22:38;;;;;;;7.67;3.10;;;1.30;99.90;;;;;;4411667;28;658078;-73
2024/01/05 00:25:25;;;;;;;5.73;3.70;;;1.30;99.90;;;;;;4428956;28;658088;-73
2024/01/05 00:28:13;;;;;;;8.87;3.57;;;1.30;99.90;;;;;;4410053;28;657705;-74
2024/01/05 00:31:01;;;;;;;5.27;3.20;;;1.30;99.90;;;;;;4421733;28;659226;-73
2024/01/05 00:33:48;;;;;;;4.10;2.83;;;1.30;99.90;;;;;;4407106;28;658458;-73
2024/01/05 00:36:35;;;;;;;6.20;3.33;;;1.30;99.90;;;;;;4434149;28;658470;-73
2024/01/05 00:39:23;;;;;;;3.87;2.40;;;1.20;99.90;;;;;;4411260;28;657537;-74
2024/01/05 00:42:10;;;;;;;7.87;3.60;;;1.30;99.90;;;;;;4419513;28;658255;-73
2024/01/05 00:44:57;;;;;;;4.00;2.23;;;1.20;99.90;;;;;;4411220;28;658646;-73
2024/01/05 00:47:46;;;;;;;6.53;3.07;;;1.20;99.90;;;;;;4438631;28;657816;-73
2024/01/05 00:50:33;;;;;;;5.23;3.20;;;1.20;99.90;;;;;;4409291;28;657797;-73
2024/01/05 00:53:20;;;;;;;4.97;2.90;;;1.20;99.90;;;;;;4436508;28;657505;-73
2024/01/05 00:56:07;;;;;;;6.80;3.47;;;1.20;99.90;;;;;;4416085;28;657323;-73
2024/01/05 00:58:55;;;;;;;4.33;2.07;;;1.20;99.90;;;;;;4432475;28;658470;-73
2024/01/05 01:01:42;;;;;;;3.63;1.87;;;1.10;99.90;;;;;;4441389;28;656943;-73
2024/01/05 01:04:30;;;;;;;4.77;2.00;;;1.10;99.90;;;;;;4414776;28;657548;-73
2024/01/05 01:07:18;;;;;;;8.53;2.13;;;1.10;99.90;;;;;;4401658;28;658019;-73
2024/01/05 01:10:05;;;;;;;4.83;2.30;;;1.10;99.90;;;;;;4438763;28;658900;-73
2024/01/05 01:12:53;;;;;;;3.60;2.00;;;1.00;99.90;;;;;;4409030;28;657284;-73
2024/01/05 01:15:40;;;;;;;5.17;2.23;;;1.00;99.90;;;;;;4426769;28;658949;-73
2024/01/05 01:18:27;;;;;;;5.07;2.30;;;1.00;99.90;;;;;;4432885;28;657422;-73
2024/01/05 01:21:16;;;;;;;2.47;1.77;;;1.00;99.90;;;;;;4443971;28;657617;-73
2024/01/05 01:24:04;;;;;;;3.80;1.90;;;1.00;99.90;;;;;;4411734;28;658087;-73
2024/01/05 01:26:51;;;;;;;2.93;1.90;;;1.00;99.90;;;;;;4430280;28;657314;-73
2024/01/05 01:29:39;;;;;;;3.03;2.10;;;1.00;99.90;;;;;;4411239;28;657529;-73
2024/01/05 01:32:28;;;;;;;4.83;2.40;;;1.00;99.90;;;;;;4436501;28;657950;-72
2024/01/05 01:35:15;;;;;;;3.53;1.80;;;1.00;99.90;;;;;;4409786;28;658910;-73
2024/01/05 01:38:04;;;;;;;4.23;2.13;;;0.90;99.90;;;;;;4420000;28;658852;-73
2024/01/05 01:40:53;;;;;;;3.77;2.30;;;0.90;99.90;;;;;;4438533;28;658109;-73
2024/01/05 01:43:45;;;;;;;2.87;1.77;;;0.90;99.90;;;;;;4415278;28;658005;-72
2024/01/05 01:46:33;;;;;;;3.87;2.10;;;0.90;99.90;;;;;;4392588;28;658200;-73
2024/01/05 01:49:20;;;;;;;3.67;1.97;;;0.90;99.90;;;;;;4431781;28;657922;-73
2024/01/05 01:52:08;;;;;;;4.83;2.40;;;1.00;99.90;;;;;;4417320;28;657614;-73
2024/01/05 01:54:56;;;;;;;5.53;2.70;;;0.90;99.90;;;;;;4434415;28;658800;-72
2024/01/05 01:57:43;;;;;;;4.17;2.40;;;1.00;99.90;;;;;;4421626;28;657400;-73
2024/01/05 02:00:31;;;;;;;2.30;1.30;;;1.00;99.90;;;;;;4442566;28;657781;-73
2024/01/05 02:03:18;;;;;;;3.93;2.50;;;1.00;99.90;;;;;;4410255;28;657499;-73
2024/01/05 02:06:05;;;;;;;6.73;3.43;;;0.90;99.90;;;;;;4435297;28;658101;-72
2024/01/05 02:08:52;;;;;;;5.23;3.03;;;0.80;99.90;;;;;;4406744;28;657760;-73
2024/01/05 02:11:41;;;;;;;3.77;2.37;;;0.80;99.90;;;;;;4433372;28;657515;-72
2024/01/05 02:14:28;;;;;;;3.97;2.03;;;0.80;99.90;;;;;;4421341;28;657450;-72
2024/01/05 02:17:28;;;;;;;6.97;4.53;;;0.80;99.90;;;;;;4430666;28;657609;-72
2024/01/05 02:20:15;;;;;;;5.97;3.40;;;0.80;99.90;;;;;;4413552;28;658182;-73
2024/01/05 02:23:03;;;;;;;5.23;3.57;;;0.80;99.90;;;;;;4415440;28;658130;-72
2024/01/05 02:25:51;;;;;;;3.47;2.40;;;0.80;99.90;;;;;;4425189;28;658290;-72
2024/01/05 02:28:40;;;;;;;4.43;2.95;;;0.80;99.90;;;;;;4405416;28;658019;-72
2024/01/05 02:31:27;;;;;;;5.87;3.17;;;0.80;99.90;;;;;;4422946;28;657710;-72
2024/01/05 02:34:15;;;;;;;4.40;2.87;;;0.70;99.90;;;;;;4426987;28;657642;-72
2024/01/05 02:37:02;;;;;;;5.43;3.13;;;0.80;99.90;;;;;;4435341;28;657621;-72
2024/01/05 02:39:49;;;;;;;4.47;2.40;;;0.80;99.90;;;;;;4395678;28;658809;-72
2024/01/05 02:42:38;;;;;;;2.13;1.60;;;0.80;99.90;;;;;;4438104;28;658206;-72
2024/01/05 02:45:25;;;;;;;4.00;2.57;;;0.90;99.90;;;;;;4409472;28;658361;-72
2024/01/05 02:48:12;;;;;;;2.77;1.97;;;0.80;99.90;;;;;;4413855;28;658632;-73
2024/01/05 02:51:00;;;;;;;3.50;2.40;;;0.80;99.90;;;;;;4426408;28;657893;-72
2024/01/05 02:53:47;;;;;;;4.73;2.40;;;0.80;99.90;;;;;;4439582;28;657798;-72
2024/01/05 02:56:35;;;;;;;4.80;2.90;;;0.80;99.90;;;;;;4432936;28;657454;-73
2024/01/05 02:59:23;;;;;;;4.13;2.40;;;0.80;99.90;;;;;;4440045;28;657678;-72
2024/01/05 03:02:10;;;;;;;2.57;1.57;;;0.70;99.90;;;;;;4394178;28;658539;-72
2024/01/05 03:04:58;;;;;;;3.77;2.70;;;0.70;99.90;;;;;;4419192;28;657937;-72
2024/01/05 03:07:46;;;;;;;3.43;1.93;;;0.70;99.90;;;;;;4437536;28;658691;-72
2024/01/05 03:10:33;;;;;;;4.17;2.70;;;0.70;99.90;;;;;;4414317;28;657911;-72
2024/01/05 03:13:21;;;;;;;5.43;2.87;;;0.60;99.90;;;;;;4441497;28;658372;-73
2024/01/05 03:16:09;;;;;;;4.77;2.53;;;0.70;99.90;;;;;;4419315;28;658091;-72
2024/01/05 03:18:56;;;;;;;4.63;2.70;;;0.70;99.90;;;;;;4433490;28;657858;-72
2024/01/05 03:21:43;;;;;;;5.72;2.58;;;0.70;99.90;;;;;;4408225;28;657410;-73
2024/01/05 03:24:31;;;;;;;5.00;2.67;;;0.60;99.90;;;;;;4416408;28;659349;-73
2024/01/05 03:27:18;;;;;;;9.10;3.30;;;0.70;99.90;;;;;;4404643;28;657456;-72
2024/01/05 03:30:06;;;;;;;7.03;3.33;;;0.70;99.90;;;;;;4444018;28;657510;-72
2024/01/05 03:32:55;;;;;;;8.65;3.47;;;0.70;99.90;;;;;;4418735;28;657794;-72
2024/01/05 03:35:42;;;;;;;8.13;3.53;;;0.50;99.90;;;;;;4433073;28;658082;-72
2024/01/05 03:38:30;;;;;;;6.10;3.13;;;0.40;99.90;;;;;;4444244;28;657865;-72
2024/01/05 03:41:17;;;;;;;6.47;3.13;;;0.50;99.90;;;;;;4441762;28;658027;-72
2024/01/05 03:44:05;;;;;;;5.80;3.50;;;0.50;99.90;;;;;;4423426;28;657707;-73
2024/01/05 03:46:52;;;;;;;6.57;3.33;;;0.40;99.90;;;;;;4435799;28;657970;-72
2024/01/05 03:49:41;;;;;;;6.47;3.63;;;0.40;99.90;;;;;;4439077;28;657668;-72
2024/01/05 03:52:28;;;;;;;7.77;4.13;;;0.30;99.90;;;;;;4409594;28;657686;-72
2024/01/05 03:55:16;;;;;;;6.38;4.05;;;0.30;99.90;;;;;;4434342;28;658491;-72
2024/01/05 03:58:03;;;;;;;8.77;4.50;;;0.30;99.90;;;;;;4418588;28;658036;-72
2024/01/05 04:00:51;;;;;;;9.97;4.90;;;0.20;99.90;;;;;;4428923;28;657709;-72
2024/01/05 04:03:38;;;;;;;12.17;5.07;;;0.10;99.90;;;;;;4411456;28;657826;-72
2024/01/05 04:06:26;;;;;;;9.77;5.30;;;0.00;99.90;;;;;;4430519;28;658953;-72
2024/01/05 04:09:14;;;;;;;7.67;4.23;;;0.00;99.90;;;;;;4399363;28;657405;-72
2024/01/05 04:12:01;;;;;;;9.00;5.03;;;0.00;99.90;;;;;;4425326;28;658070;-72
2024/01/05 04:14:49;;;;;;;9.63;4.30;;;0.00;99.90;;;;;;4412039;28;657929;-72
2024/01/05 04:17:36;;;;;;;6.20;3.20;;;0.10;99.90;;;;;;4440271;28;657748;-72
2024/01/05 04:20:23;;;;;;;6.27;3.70;;;0.10;99.90;;;;;;4399669;28;658284;-73
2024/01/05 04:23:12;;;;;;;5.95;3.90;;;-0.10;99.90;;;;;;4414251;28;657456;-72
2024/01/05 04:26:00;;;;;;;5.90;3.37;;;-0.20;99.90;;;;;;4391018;28;659558;-73
2024/01/05 04:28:48;;;;;;;4.70;3.03;;;-0.10;99.90;;;;;;4414948;28;659309;-73
2024/01/05 04:31:35;;;;;;;5.10;3.13;;;-0.10;99.90;;;;;;4419489;28;660101;-73
2024/01/05 04:34:23;;;;;;;4.97;3.37;;;-0.10;99.90;;;;;;4399216;28;658781;-72
2024/01/05 04:37:10;;;;;;;4.60;2.87;;;-0.10;99.90;;;;;;4396327;28;659492;-72
2024/01/05 04:39:59;;;;;;;5.17;3.00;;;-0.10;99.90;;;;;;4402995;28;658645;-73
2024/01/05 04:42:46;;;;;;;5.23;3.53;;;-0.20;99.90;;;;;;4416167;28;658117;-73
2024/01/05 04:45:35;;;;;;;5.10;2.87;;;-0.10;99.90;;;;;;4387184;28;659118;-73
2024/01/05 04:48:22;;;;;;;5.17;2.50;;;-0.20;99.90;;;;;;4392777;28;659187;-72
2024/01/05 04:51:10;;;;;;;4.60;3.00;;;-0.10;99.90;;;;;;4421296;28;658449;-73
2024/01/05 04:53:57;;;;;;;4.73;3.10;;;-0.10;99.90;;;;;;4409862;28;659176;-72
2024/01/05 04:56:45;;;;;;;4.47;2.13;;;-0.20;99.90;;;;;;4386142;28;659887;-72
2024/01/05 04:59:33;;;;;;;4.47;2.90;;;-0.20;99.90;;;;;;4383369;28;659028;-72
2024/01/05 05:02:20;;;;;;;5.13;3.00;;;-0.20;99.90;;;;;;4411197;28;658850;-73
2024/01/05 05:05:08;;;;;;;2.67;1.57;;;-0.20;99.90;;;;;;4396209;28;659129;-72
2024/01/05 05:07:55;;;;;;;5.23;2.83;;;-0.10;99.90;;;;;;4405759;28;659547;-72
2024/01/05 05:10:43;;;;;;;5.70;3.07;;;-0.10;99.90;;;;;;4414101;28;658218;-72
2024/01/05 05:13:31;;;;;;;2.37;1.30;;;-0.30;99.90;;;;;;4412609;28;658965;-72
2024/01/05 05:16:18;;;;;;;6.03;3.47;;;-0.20;99.90;;;;;;4392914;28;659173;-73
2024/01/05 05:19:06;;;;;;;4.03;2.47;;;-0.20;99.90;;;;;;4418225;28;658979;-72
2024/01/05 05:21:53;;;;;;;4.60;2.70;;;-0.10;99.90;;;;;;4409807;28;658202;-72
2024/01/05 05:24:40;;;;;;;6.57;3.70;;;-0.10;99.90;;;;;;4426524;28;659109;-72
2024/01/05 05:27:28;;;;;;;6.40;3.50;;;-0.10;99.90;;;;;;4410355;28;659459;-72
2024/01/05 05:30:17;;;;;;;6.57;3.90;;;-0.20;99.90;;;;;;4424005;28;659696;-72
2024/01/05 05:33:05;;;;;;;8.82;4.40;;;-0.20;99.90;;;;;;4409819;28;659887;-72
2024/01/05 05:35:53;;;;;;;3.37;2.03;;;-0.10;99.90;;;;;;4424037;28;659366;-72
2024/01/05 05:38:40;;;;;;;6.90;4.40;;;-0.10;99.90;;;;;;4425932;28;659393;-72
2024/01/05 05:41:27;;;;;;;6.30;4.07;;;-0.10;99.90;;;;;;4426045;28;658652;-72
2024/01/05 05:44:15;;;;;;;7.33;4.30;;;-0.10;99.90;;;;;;4432238;28;659256;-72
2024/01/05 05:47:03;;;;;;;6.73;3.93;;;-0.10;99.90;;;;;;4423094;28;659125;-72
2024/01/05 05:49:51;;;;;;;6.55;3.92;;;-0.10;99.90;;;;;;4409222;28;659737;-72
2024/01/05 05:52:38;;;;;;;5.60;2.97;;;-0.10;99.90;;;;;;4408296;28;659188;-72
2024/01/05 05:55:25;;;;;;;8.60;4.03;;;-0.10;99.90;;;;;;4426451;28;659224;-72
2024/01/05 05:58:12;;;;;;;7.60;3.83;;;-0.10;99.90;;;;;;4417547;28;658706;-72
2024/01/05 06:00:59;;;;;;;9.13;4.33;;;-0.10;99.90;;;;;;4430173;28;658916;-72
2024/01/05 06:03:48;;;;;;;7.00;4.20;;;0.00;99.90;;;;;;4440035;28;658929;-72
2024/01/05 06:06:35;;;;;;;10.53;5.00;;;0.10;99.90;;;;;;4409581;28;657904;-72
2024/01/05 06:09:22;;;;;;;8.87;4.57;;;0.00;99.90;;;;;;4418539;28;658780;-73
2024/01/05 06:12:10;;;;;;;8.37;4.53;;;0.00;99.90;;;;;;4436053;28;658036;-73
2024/01/05 06:14:58;;;;;;;9.70;4.63;;;0.00;99.90;;;;;;4409630;28;657177;-72
2024/01/05 06:17:45;;;;;;;11.27;5.30;;;0.10;99.90;;;;;;4437055;28;658883;-72
2024/01/05 06:20:34;;;;;;;9.87;5.20;;;0.10;99.90;;;;;;4421332;28;658927;-73
2024/01/05 06:23:21;;;;;;;9.07;5.17;;;0.00;99.90;;;;;;4434333;28;657706;-73
2024/01/05 06:26:08;;;;;;;6.97;4.90;;;0.00;99.90;;;;;;4408287;28;658249;-76
2024/01/05 06:28:55;;;;;;;10.23;4.93;;;0.10;99.90;;;;;;4432775;28;658324;-75
2024/01/05 06:31:43;;;;;;;9.23;4.73;;;0.10;99.90;;;;;;4414532;28;658277;-75
2024/01/05 06:34:30;;;;;;;9.03;5.40;;;0.10;99.90;;;;;;4439673;28;658217;-74
2024/01/05 06:37:19;;;;;;;8.90;4.53;;;0.10;99.90;;;;;;4417310;28;658300;-74
2024/01/05 06:40:07;;;;;;;8.80;5.07;;;0.00;99.90;;;;;;4425415;28;658160;-74
2024/01/05 06:42:56;;;;;;;8.20;4.87;;;0.10;99.90;;;;;;4411615;28;658658;-74
2024/01/05 06:45:43;;;;;;;11.00;5.13;;;0.10;99.90;;;;;;4403384;28;658000;-74
2024/01/05 06:48:30;;;;;;;8.43;4.93;;;0.10;99.90;;;;;;4422913;28;659343;-74
2024/01/05 06:51:18;;;;;;;8.93;4.83;;;0.10;99.90;;;;;;4409807;28;658621;-74
2024/01/05 06:54:06;;;;;;;6.60;4.00;;;0.10;99.90;;;;;;4427214;28;658747;-71
2024/01/05 06:56:53;;;;;;;8.27;4.20;;;0.10;99.90;;;;;;4409328;28;658216;-73
2024/01/05 06:59:41;;;;;;;9.37;4.37;;;0.10;99.90;;;;;;4429829;28;657775;-73
2024/01/05 07:02:28;;;;;;;7.90;4.40;;;0.10;99.90;;;;;;4419730;28;657852;-72
2024/01/05 07:05:15;;;;;;;8.13;4.93;;;0.10;99.90;;;;;;4426147;28;658300;-74
2024/01/05 07:08:03;;;;;;;10.67;6.67;;;0.10;99.90;;;;;;4408935;28;657633;-74
2024/01/05 07:10:51;;;;;;;12.23;6.47;;;0.10;99.90;;;;;;4428963;28;660257;-74
2024/01/05 07:13:38;;;;;;;14.57;8.52;;;0.10;99.90;;;;;;4403563;28;658783;-73
2024/01/05 07:16:26;;;;;;;8.77;4.90;;;0.10;99.90;;;;;;4431391;28;659922;-73
2024/01/05 07:19:13;;;;;;;8.37;4.67;;;0.20;99.90;;;;;;4407977;28;657943;-73
2024/01/05 07:22:00;;;;;;;7.77;4.47;;;0.10;99.90;;;;;;4428794;28;659038;-73
2024/01/05 07:24:49;;;;;;;11.27;5.43;;;0.10;99.90;;;;;;4414428;28;657708;-72
2024/01/05 07:27:37;;;;;;;9.83;4.13;;;0.00;99.90;;;;;;4428221;28;659224;-73
2024/01/05 07:30:25;;;;;;;7.40;4.23;;;0.00;99.90;;;;;;4410553;28;658077;-73
2024/01/05 07:33:12;;;;;;;8.30;4.63;;;0.10;99.90;;;;;;4421712;28;657605;-73
2024/01/05 07:36:04;;;;;;;6.80;4.17;;;0.10;99.90;;;;;;4437032;28;657963;-73
2024/01/05 07:38:51;;;;;;;7.57;4.50;;;0.10;99.90;;;;;;4411127;28;658310;-73
2024/01/05 07:41:38;;;;;;;6.00;3.90;;;0.20;99.90;;;;;;4402822;28;657344;-73
2024/01/05 07:44:27;;;;;;;6.60;3.87;;;0.10;99.90;;;;;;4434683;28;658432;-72
2024/01/05 07:47:14;;;;;;;7.07;3.67;;;0.10;99.90;;;;;;4407656;28;658789;-73
2024/01/05 07:50:02;;;;;;;7.13;3.70;;;0.10;99.90;;;;;;4435372;28;657135;-73
2024/01/05 07:52:49;;;;;;;8.60;4.00;;;0.20;99.90;;;;;;4426326;28;657441;-73
2024/01/05 07:55:36;;;;;;;5.47;3.50;;;0.20;99.90;;;;;;4436734;28;658802;-73
2024/01/05 07:58:23;;;;;;;5.07;3.03;;;0.30;99.90;;;;;;4397381;28;657484;-72
2024/01/05 08:01:16;;;;;;;13.83;6.03;;;0.40;99.90;;;;;;4436482;28;658813;-72
2024/01/05 08:04:04;;;;;;;20.90;9.63;;;0.30;99.90;;;;;;4386354;28;660064;-72
2024/01/05 08:06:51;;;;;;;21.10;9.83;;;0.40;99.90;;;;;;4428109;28;659233;-72
2024/01/05 08:09:38;;;;;;;23.50;10.23;;;0.40;99.90;;;;;;4413293;28;659389;-73
2024/01/05 08:12:26;;;;;;;19.97;8.97;;;0.30;99.90;;;;;;4419090;28;660244;-73
2024/01/05 08:15:13;;;;;;;16.70;9.10;;;0.30;99.90;;;;;;4402522;28;659418;-73
2024/01/05 08:18:03;;;;;;;14.70;7.40;;;0.40;99.90;;;;;;4432966;28;659304;-73
2024/01/05 08:20:50;;;;;;;16.07;8.17;;;0.40;99.90;;;;;;4408861;28;659224;-73
2024/01/05 08:23:37;;;;;;;16.13;7.47;;;0.30;99.90;;;;;;4413372;28;659091;-73
2024/01/05 08:26:25;;;;;;;10.73;6.20;;;0.40;99.90;;;;;;4430761;28;659251;-73
2024/01/05 08:29:12;;;;;;;12.20;6.30;;;0.40;99.90;;;;;;4424954;28;659364;-73
2024/01/05 08:32:02;;;;;;;14.87;7.67;;;0.40;99.90;;;;;;4432986;28;658890;-72
2024/01/05 08:34:51;;;;;;;18.15;8.85;;;0.40;99.90;;;;;;4428393;28;660660;-73
2024/01/05 08:37:38;;;;;;;18.53;8.60;;;0.50;99.90;;;;;;4427083;28;658747;-73
2024/01/05 08:40:28;;;;;;;17.67;9.33;;;0.60;99.90;;;;;;4429125;28;658726;-73
2024/01/05 08:43:15;;;;;;;18.97;9.77;;;0.60;99.90;;;;;;4416233;28;659181;-72
2024/01/05 08:46:02;;;;;;;15.30;8.50;;;0.60;99.90;;;;;;4428189;28;659008;-73
2024/01/05 08:48:50;;;;;;;19.53;8.03;;;0.70;99.90;;;;;;4436195;28;658093;-73
2024/01/05 08:51:43;;;;;;;24.73;10.00;;;0.70;99.90;;;;;;4419681;28;659974;-73
2024/01/05 08:54:30;;;;;;;25.57;9.47;;;0.70;99.90;;;;;;4400048;28;660813;-73
2024/01/05 08:57:17;;;;;;;24.13;10.00;;;0.80;99.90;;;;;;4407761;28;658771;-73
2024/01/05 09:00:09;;;;;;;29.37;9.60;;;0.80;99.90;;;;;;4427907;28;660225;-72
2024/01/05 09:02:56;;;;;;;23.07;9.83;;;0.90;99.90;;;;;;4410044;28;659198;-73
2024/01/05 09:05:45;;;;;;;24.80;8.90;;;1.00;99.90;;;;;;4404400;28;658872;-73
2024/01/05 09:08:34;;;;;;;23.40;10.13;;;1.10;99.90;;;;;;4433335;28;658985;-73
2024/01/05 09:11:21;;;;;;;23.60;9.77;;;1.10;99.90;;;;;;4432515;28;659684;-73
2024/01/05 09:14:08;;;;;;;23.07;9.83;;;1.20;99.90;;;;;;4399209;28;659144;-73
2024/01/05 09:16:56;;;;;;;34.77;12.73;;;1.20;99.90;;;;;;4427327;28;658637;-73
2024/01/05 09:19:43;;;;;;;33.63;12.67;;;1.20;99.90;;;;;;4409143;28;660603;-73
2024/01/05 09:22:30;;;;;;;35.47;13.50;;;1.30;99.90;;;;;;4430439;28;660205;-73
2024/01/05 09:25:19;;;;;;;42.10;15.00;;;1.40;99.90;;;;;;4400038;28;660417;-73
2024/01/05 09:28:06;;;;;;;34.77;12.90;;;2.00;99.90;;;;;;4418505;28;659414;-74
2024/01/05 09:30:54;;;;;;;50.77;18.27;;;2.50;99.90;;;;;;4392117;28;661114;-73
2024/01/05 09:33:41;;;;;;;34.87;13.27;;;3.20;99.90;;;;;;4419103;28;659993;-73
2024/01/05 09:36:28;;;;;;;39.13;13.93;;;3.90;99.90;;;;;;4413940;28;659760;-74
2024/01/05 09:39:15;;;;;;;32.43;13.50;;;4.20;99.90;;;;;;4427289;28;660169;-74
2024/01/05 09:42:04;;;;;;;31.80;13.77;;;4.70;99.90;;;;;;4409706;28;659450;-74
2024/01/05 09:44:52;;;;;;;33.43;13.77;;;5.30;99.90;;;;;;4425008;28;660180;-74
2024/01/05 09:47:40;;;;;;;28.83;11.33;;;5.10;99.90;;;;;;4402978;28;659853;-74
2024/01/05 09:50:27;;;;;;;29.10;10.77;;;5.30;99.90;;;;;;4424620;28;659215;-74
2024/01/05 09:53:14;;;;;;;26.73;10.97;;;5.30;99.90;;;;;;4402622;28;659706;-74
2024/01/05 09:56:02;;;;;;;26.57;10.93;;;5.30;99.90;;;;;;4432571;28;659340;-74
2024/01/05 09:58:51;;;;;;;26.77;10.70;;;6.00;99.90;;;;;;4399782;28;660063;-74
2024/01/05 10:01:38;;;;;;;24.63;10.57;;;5.40;99.90;;;;;;4407212;28;659814;-75
2024/01/05 10:04:26;;;;;;;24.60;10.93;;;5.40;99.90;;;;;;4426133;28;660801;-74
2024/01/05 10:07:14;;;;;;;26.40;10.43;;;5.30;99.90;;;;;;4407747;28;660016;-74
2024/01/05 10:10:01;;;;;;;23.70;10.90;;;4.70;99.90;;;;;;4409590;28;660126;-74
2024/01/05 10:12:48;;;;;;;26.60;11.57;;;4.50;99.90;;;;;;4405931;28;660198;-74
2024/01/05 10:15:41;;;;;;;33.53;12.37;;;4.20;99.90;;;;;;4419294;28;660443;-74
2024/01/05 10:18:29;;;;;;;32.40;12.03;;;4.00;99.90;;;;;;4399719;28;660265;-74
2024/01/05 10:21:16;;;;;;;36.43;13.27;;;3.90;99.90;;;;;;4425756;28;660702;-74
2024/01/05 10:24:03;;;;;;;27.87;9.87;;;3.80;99.90;;;;;;4398539;28;659483;-76
2024/01/05 10:27:01;;;;;;;24.00;8.87;;;3.50;99.90;;;;;;4424229;28;659827;-75
2024/01/05 10:29:49;;;;;;;29.30;11.05;;;3.30;99.90;;;;;;4404410;28;659142;-74
2024/01/05 10:32:38;;;;;;;25.30;10.07;;;3.00;99.90;;;;;;4429691;28;660202;-74
2024/01/05 10:35:25;;;;;;;27.27;8.70;;;3.00;99.90;;;;;;4407090;28;660074;-75
2024/01/05 10:38:13;;;;;;;27.77;10.67;;;2.70;99.90;;;;;;4419712;28;658421;-75
2024/01/05 10:41:06;;;;;;;30.25;10.45;;;2.70;99.90;;;;;;4432372;28;660828;-75
2024/01/05 10:43:53;;;;;;;27.33;10.67;;;2.90;99.90;;;;;;4377059;28;660067;-75
2024/01/05 10:46:42;;;;;;;31.73;12.10;;;3.00;99.90;;;;;;4424798;28;659404;-74
2024/01/05 10:49:31;;;;;;;30.90;10.30;;;3.50;99.90;;;;;;4408187;28;659591;-74
2024/01/05 10:52:19;;;;;;;33.47;14.37;;;3.50;99.90;;;;;;4409235;28;659462;-74
2024/01/05 10:55:07;;;;;;;27.40;11.87;;;3.60;99.90;;;;;;4426707;28;659898;-74
2024/01/05 10:57:55;;;;;;;22.73;9.97;;;3.80;99.90;;;;;;4410574;28;659978;-74
2024/01/05 11:00:42;;;;;;;22.13;9.83;;;3.60;99.90;;;;;;4434780;28;658966;-74
2024/01/05 11:03:37;;;;;;;27.07;9.87;;;3.60;99.90;;;;;;4429154;28;658512;-74
2024/01/05 11:06:26;;;;;;;28.23;10.53;;;3.60;99.90;;;;;;4378391;28;660756;-74
2024/01/05 11:09:16;;;;;;;29.13;11.03;;;3.30;99.90;;;;;;4398597;28;659771;-74
2024/01/05 11:12:09;;;;;;;27.00;10.07;;;3.40;99.90;;;;;;4407132;28;660714;-74
2024/01/05 11:15:04;;;;;;;28.07;11.80;;;3.50;99.90;;;;;;4409816;28;659282;-80
2024/01/05 11:18:10;;;;;;;26.60;11.70;;;4.00;99.90;;;;;;4403302;28;659765;-74
2024/01/05 11:21:05;;;;;;;21.63;9.00;;;4.80;99.90;;;;;;4400951;28;659967;-74
2024/01/05 11:23:55;;;;;;;23.77;10.43;;;5.70;99.90;;;;;;4408264;28;659349;-77
2024/01/05 11:26:43;;;;;;;20.20;9.00;;;5.60;99.90;;;;;;4420687;28;659600;-74
2024/01/05 11:29:48;;;;;;;25.10;11.03;;;6.10;99.90;;;;;;4435436;28;659037;-75
2024/01/05 11:32:39;;;;;;;26.53;10.93;;;6.60;99.90;;;;;;4398958;28;659875;-76
2024/01/05 11:35:43;;;;;;;24.43;10.97;;;7.50;99.90;;;;;;4405336;28;660402;-76
2024/01/05 11:38:30;;;;;;;19.20;9.87;;;8.50;99.90;;;;;;4386014;28;660223;-76
2024/01/05 11:41:19;;;;;;;22.83;9.57;;;8.80;99.90;;;;;;4407169;28;659368;-75
2024/01/05 11:44:07;;;;;;;20.20;9.80;;;8.70;99.90;;;;;;4423996;28;659485;-75
2024/01/05 11:46:55;;;;;;;19.27;9.88;;;8.60;99.90;;;;;;4414842;28;658953;-75
2024/01/05 11:49:44;;;;;;;29.17;11.80;;;8.40;99.90;;;;;;4411395;28;658866;-75
2024/01/05 11:52:31;;;;;;;24.77;11.63;;;7.90;99.90;;;;;;4421390;28;660083;-74
2024/01/05 11:55:18;;;;;;;30.03;12.23;;;7.10;99.90;;;;;;4408403;28;660041;-75
2024/01/05 11:58:07;;;;;;;22.03;12.03;;;6.80;99.90;;;;;;4437801;28;660181;-75
2024/01/05 12:00:55;;;;;;;23.90;11.23;;;6.80;99.90;;;;;;4399304;28;660938;-75
2024/01/05 12:03:43;;;;;;;35.77;13.03;;;6.80;99.90;;;;;;4401292;28;660375;-74
2024/01/05 12:06:30;;;;;;;27.23;11.90;;;6.80;99.90;;;;;;4434014;28;660559;-75
2024/01/05 12:09:18;;;;;;;25.87;11.33;;;6.70;99.90;;;;;;4408066;28;660047;-74
2024/01/05 12:12:20;;;;;;;32.87;13.17;;;6.80;99.90;;;;;;4434518;28;659986;-75
2024/01/05 12:15:10;;;;;;;27.03;13.43;;;6.40;99.90;;;;;;4385376;28;660056;-75
2024/01/05 12:18:04;;;;;;;27.27;13.00;;;6.30;99.90;;;;;;4409077;28;659854;-75
2024/01/05 12:20:54;;;;;;;24.60;11.80;;;6.40;99.90;;;;;;4408648;28;659479;-75
2024/01/05 12:23:41;;;;;;;23.57;11.23;;;6.60;99.90;;;;;;4395924;28;659840;-75
2024/01/05 12:26:29;;;;;;;19.23;9.43;;;7.10;99.90;;;;;;4396606;28;659523;-75
2024/01/05 12:29:16;;;;;;;23.63;11.37;;;7.40;99.90;;;;;;4418447;28;658671;-75
2024/01/05 12:32:07;;;;;;;24.53;11.30;;;7.20;99.90;;;;;;4393599;28;659882;-75
2024/01/05 12:34:54;;;;;;;24.23;11.90;;;7.30;99.90;;;;;;4403717;28;660100;-75
2024/01/05 12:37:51;;;;;;;27.63;10.87;;;8.00;99.90;;;;;;4410655;28;659423;-75
2024/01/05 12:40:38;;;;;;;30.30;16.07;;;8.30;99.90;;;;;;4372804;28;659791;-75
2024/01/05 12:43:25;;;;;;;25.93;11.63;;;8.30;99.90;;;;;;4414691;28;660287;-75
2024/01/05 12:46:12;;;;;;;40.80;14.70;;;7.90;99.90;;;;;;4408479;28;659640;-75
2024/01/05 12:49:07;;;;;;;25.23;11.40;;;7.80;99.90;;;;;;4421742;28;660489;-74
2024/01/05 12:51:55;;;;;;;27.30;13.20;;;7.20;99.90;;;;;;4406488;28;659833;-75
2024/01/05 12:54:43;;;;;;;22.88;11.23;;;6.80;99.90;;;;;;4410272;28;659676;-75
2024/01/05 12:57:31;;;;;;;28.00;11.57;;;6.40;99.90;;;;;;4416922;28;660252;-75
2024/01/05 13:00:19;;;;;;;26.67;11.23;;;6.20;99.90;;;;;;4406451;28;659779;-75
2024/01/05 13:03:08;;;;;;;25.27;13.03;;;5.80;99.90;;;;;;4415240;28;660704;-75
2024/01/05 13:05:56;;;;;;;25.47;12.87;;;5.80;99.90;;;;;;4401256;28;660816;-75
2024/01/05 13:08:43;;;;;;;24.13;11.80;;;5.90;99.90;;;;;;4394531;28;659961;-74
2024/01/05 13:11:31;;;;;;;29.73;13.80;;;6.00;99.90;;;;;;4433238;28;660169;-74
2024/01/05 13:14:18;;;;;;;27.80;12.43;;;5.60;99.90;;;;;;4408068;28;660590;-74
2024/01/05 13:17:06;;;;;;;28.90;12.13;;;5.50;99.90;;;;;;4418682;28;660850;-75
2024/01/05 13:19:53;;;;;;;30.03;11.97;;;5.40;99.90;;;;;;4390660;28;659632;-75
2024/01/05 13:22:42;;;;;;;23.17;10.97;;;5.40;99.90;;;;;;4418452;28;659582;-75
2024/01/05 13:25:29;;;;;;;28.03;11.53;;;5.30;99.90;;;;;;4398033;28;661782;-75
2024/01/05 13:28:16;;;;;;;24.53;10.30;;;5.10;99.90;;;;;;4416560;28;659197;-75
2024/01/05 13:31:04;;;;;;;27.30;11.60;;;4.80;99.90;;;;;;4388023;28;659385;-74
2024/01/05 13:33:51;;;;;;;28.37;11.33;;;4.30;99.90;;;;;;4367121;28;660053;-75
2024/01/05 13:36:38;;;;;;;26.37;11.70;;;4.30;99.90;;;;;;4345908;28;660627;-76
2024/01/05 13:39:27;;;;;;;24.67;11.23;;;4.50;99.90;;;;;;4332885;28;659285;-75
2024/01/05 13:42:14;;;;;;;29.17;14.30;;;4.70;99.90;;;;;;4306392;28;659937;-75
2024/01/05 13:45:04;;;;;;;31.80;13.27;;;4.50;99.90;;;;;;4326880;28;659451;-76
2024/01/05 13:47:53;;;;;;;33.57;15.47;;;4.30;99.90;;;;;;4319975;28;660282;-76
2024/01/05 13:50:40;;;;;;;30.07;13.40;;;4.30;99.90;;;;;;4349396;28;660948;-76
2024/01/05 13:53:27;;;;;;;25.67;11.63;;;4.00;99.90;;;;;;4359003;28;659575;-75
2024/01/05 13:56:16;;;;;;;28.27;12.57;;;4.00;99.90;;;;;;4337860;28;663479;-75
2024/01/05 13:59:03;;;;;;;28.37;13.20;;;3.90;99.90;;;;;;4310342;28;659583;-75
2024/01/05 14:01:50;;;;;;;26.97;12.17;;;3.70;99.90;;;;;;4334519;28;660058;-76
2024/01/05 14:04:38;;;;;;;28.80;12.07;;;3.60;99.90;;;;;;4308839;28;659763;-75
2024/01/05 14:07:25;;;;;;;35.57;14.57;;;3.50;99.90;;;;;;4357347;28;660003;-76
2024/01/05 14:10:12;;;;;;;33.27;14.43;;;3.30;99.90;;;;;;4331734;28;659693;-75
2024/01/05 14:13:01;;;;;;;34.07;14.63;;;2.90;99.90;;;;;;4425799;28;659733;-76
2024/01/05 14:15:48;;;;;;;34.00;15.25;;;2.70;99.90;;;;;;4407354;28;659965;-76
2024/01/05 14:18:35;;;;;;;38.13;16.47;;;2.60;99.90;;;;;;4424565;28;659570;-76
2024/01/05 14:21:23;;;;;;;35.03;15.33;;;2.50;99.90;;;;;;4398277;28;661078;-76
2024/01/05 14:24:10;;;;;;;37.73;17.10;;;2.30;99.90;;;;;;4418955;28;660672;-77